Time;durP1;ratioP1;P1;durP2;ratioP2;P2;SDS_P1;SDS_P2;PMS_P1;PMS_P2;Temp;Humidity;BMP_temperature;BMP_pressure;BME280_temperature;BME280_humidity;BME280_pressure;Samples;Min_cycle;Max_cycle;Signal;HPM_P1;HPM_P2
2023/09/27 00:01:32;;;;;;;0.50;0.30;;;17.00;99.90;;;;;;5074712;28;20506;-81
2023/09/27 00:03:58;;;;;;;0.50;0.40;;;17.00;99.90;;;;;;5074013;28;20927;-81
2023/09/27 00:06:25;;;;;;;0.50;0.40;;;16.90;99.90;;;;;;5074308;28;20452;-81
2023/09/27 00:08:52;;;;;;;0.50;0.40;;;16.90;99.90;;;;;;5073728;28;20891;-81
2023/09/27 00:11:19;;;;;;;0.50;0.40;;;17.00;99.90;;;;;;5074695;28;20812;-81
2023/09/27 00:13:48;;;;;;;0.50;0.40;;;16.90;99.90;;;;;;5074286;28;20476;-81
2023/09/27 00:16:14;;;;;;;0.50;0.40;;;16.90;99.90;;;;;;5065078;28;20815;-82
2023/09/27 00:18:41;;;;;;;0.50;0.30;;;16.90;99.90;;;;;;5074357;28;20464;-81
2023/09/27 00:21:08;;;;;;;0.50;0.40;;;16.90;99.90;;;;;;5073991;28;20525;-81
2023/09/27 00:23:35;;;;;;;0.50;0.40;;;16.90;99.90;;;;;;5074266;28;20464;-81
2023/09/27 00:26:01;;;;;;;0.50;0.50;;;16.80;99.90;;;;;;5073984;28;20446;-80
2023/09/27 00:28:28;;;;;;;0.50;0.40;;;16.90;99.90;;;;;;5073956;28;20460;-81
2023/09/27 00:30:56;;;;;;;0.50;0.40;;;16.90;99.90;;;;;;5073685;28;20437;-80
2023/09/27 00:33:23;;;;;;;0.73;0.73;;;16.90;99.90;;;;;;5073906;28;20528;-81
2023/09/27 00:35:50;;;;;;;0.50;0.37;;;16.90;99.90;;;;;;5073620;28;20448;-79
2023/09/27 00:38:17;;;;;;;0.90;0.90;;;16.90;99.90;;;;;;5073690;28;20468;-82
2023/09/27 00:40:48;;;;;;;0.50;0.30;;;16.90;99.90;;;;;;5073677;28;20551;-81
2023/09/27 00:43:28;;;;;;;0.50;0.40;;;16.90;99.90;;;;;;5065435;28;20428;-81
2023/09/27 00:46:00;;;;;;;0.50;0.40;;;17.00;99.90;;;;;;5073099;28;20948;-81
2023/09/27 00:48:27;;;;;;;0.50;0.40;;;16.90;99.90;;;;;;5073219;28;20828;-81
2023/09/27 00:50:55;;;;;;;0.50;0.40;;;16.90;99.90;;;;;;5073203;28;20957;-80
2023/09/27 00:53:24;;;;;;;0.50;0.40;;;16.90;99.90;;;;;;5073145;28;20480;-80
2023/09/27 00:55:52;;;;;;;0.50;0.40;;;16.90;99.90;;;;;;5073026;28;20451;-78
2023/09/27 00:58:21;;;;;;;0.50;0.40;;;16.90;99.90;;;;;;5074019;28;20560;-81
2023/09/27 01:00:51;;;;;;;0.50;0.30;;;16.90;99.90;;;;;;5074984;28;20445;-80
2023/09/27 01:03:20;;;;;;;0.50;0.40;;;17.00;99.90;;;;;;5067516;28;20798;-82
2023/09/27 01:05:47;;;;;;;0.50;0.40;;;17.00;99.90;;;;;;5075096;28;20487;-82
2023/09/27 01:08:14;;;;;;;0.50;0.37;;;17.00;99.90;;;;;;5074362;28;20457;-81
2023/09/27 01:10:41;;;;;;;0.50;0.30;;;17.00;99.90;;;;;;5074529;28;20543;-82
2023/09/27 01:13:08;;;;;;;0.90;0.90;;;17.00;99.90;;;;;;5074299;28;20483;-81
2023/09/27 01:15:35;;;;;;;0.50;0.40;;;17.00;99.90;;;;;;5074391;28;20449;-80
2023/09/27 01:18:03;;;;;;;0.50;0.40;;;17.00;99.90;;;;;;5074262;28;20463;-82
2023/09/27 01:20:33;;;;;;;0.50;0.33;;;16.90;99.90;;;;;;5074357;28;20485;-79
2023/09/27 01:23:01;;;;;;;0.50;0.50;;;16.90;99.90;;;;;;5074270;28;20931;-81
2023/09/27 01:25:30;;;;;;;0.50;0.30;;;16.80;99.90;;;;;;5073980;28;20433;-81
2023/09/27 01:27:57;;;;;;;0.80;0.73;;;16.80;99.90;;;;;;5074088;28;20870;-82
2023/09/27 01:30:25;;;;;;;0.70;0.50;;;16.90;99.90;;;;;;5075743;28;20532;-81
2023/09/27 01:32:51;;;;;;;0.50;0.40;;;16.80;99.90;;;;;;5075314;28;20562;-82
2023/09/27 01:35:18;;;;;;;0.50;0.40;;;16.80;99.90;;;;;;5074094;28;20433;-82
2023/09/27 01:37:45;;;;;;;0.50;0.40;;;16.80;99.90;;;;;;5074260;28;20555;-81
2023/09/27 01:40:22;;;;;;;0.60;0.60;;;16.70;99.90;;;;;;5073716;28;20534;-82
2023/09/27 01:42:49;;;;;;;0.50;0.40;;;16.70;99.90;;;;;;5074474;28;20579;-82
2023/09/27 01:45:16;;;;;;;0.50;0.30;;;16.70;99.90;;;;;;5073732;28;20451;-82
2023/09/27 01:47:42;;;;;;;0.50;0.40;;;16.70;99.90;;;;;;5073634;28;20839;-82
2023/09/27 01:50:10;;;;;;;0.50;0.40;;;16.70;99.90;;;;;;5073248;28;20445;-82
2023/09/27 01:52:37;;;;;;;0.50;0.33;;;16.60;99.90;;;;;;5073785;28;20811;-82
2023/09/27 01:55:04;;;;;;;0.50;0.40;;;16.60;99.90;;;;;;5073311;28;20441;-81
2023/09/27 01:57:33;;;;;;;0.50;0.40;;;16.50;99.90;;;;;;5074172;28;20444;-81
2023/09/27 01:59:59;;;;;;;0.50;0.40;;;16.60;99.90;;;;;;5074086;28;20805;-81
2023/09/27 02:02:28;;;;;;;0.50;0.40;;;16.50;99.90;;;;;;5074265;28;20941;-81
2023/09/27 02:04:54;;;;;;;0.50;0.40;;;16.50;99.90;;;;;;5074182;28;20515;-80
2023/09/27 02:07:21;;;;;;;0.53;0.50;;;16.40;99.90;;;;;;5071725;28;20543;-81
2023/09/27 02:09:48;;;;;;;0.50;0.40;;;16.40;99.90;;;;;;5071968;28;20433;-81
2023/09/27 02:12:15;;;;;;;0.60;0.50;;;16.40;99.90;;;;;;5071779;28;20449;-81
2023/09/27 02:14:43;;;;;;;0.50;0.40;;;16.30;99.90;;;;;;5071805;28;20469;-81
2023/09/27 02:17:10;;;;;;;0.50;0.40;;;16.30;99.90;;;;;;5071716;28;20444;-83
2023/09/27 02:19:37;;;;;;;0.73;0.73;;;16.30;99.90;;;;;;5071858;28;20496;-81
2023/09/27 02:22:03;;;;;;;1.27;1.27;;;16.30;99.90;;;;;;5071216;28;20449;-81
2023/09/27 02:24:31;;;;;;;0.50;0.40;;;16.20;99.90;;;;;;5071471;28;20807;-80
2023/09/27 02:26:58;;;;;;;0.50;0.40;;;16.20;99.90;;;;;;5071673;28;20494;-82
2023/09/27 02:29:25;;;;;;;0.50;0.40;;;16.20;99.90;;;;;;5071942;28;20457;-78
2023/09/27 02:31:54;;;;;;;0.67;0.67;;;16.20;99.90;;;;;;5071673;28;20441;-82
2023/09/27 02:34:21;;;;;;;0.50;0.40;;;16.10;99.90;;;;;;5071193;28;20476;-82
2023/09/27 02:36:48;;;;;;;0.50;0.40;;;16.10;99.90;;;;;;5071334;28;20444;-78
2023/09/27 02:39:15;;;;;;;0.50;0.40;;;16.10;99.90;;;;;;5070954;28;20547;-81
2023/09/27 02:41:42;;;;;;;0.50;0.40;;;16.10;99.90;;;;;;5071841;28;20499;-81
2023/09/27 02:44:09;;;;;;;0.50;0.40;;;16.10;99.90;;;;;;5071356;28;20519;-81
2023/09/27 02:46:36;;;;;;;0.50;0.40;;;16.10;99.90;;;;;;5071259;28;20436;-78
2023/09/27 02:49:04;;;;;;;1.07;1.00;;;16.00;99.90;;;;;;5071108;28;20466;-79
2023/09/27 02:51:32;;;;;;;0.50;0.40;;;16.00;99.90;;;;;;5071560;28;20837;-79
2023/09/27 02:53:59;;;;;;;0.50;0.40;;;16.00;99.90;;;;;;5071269;28;21026;-81
2023/09/27 02:56:26;;;;;;;0.50;0.40;;;15.90;99.90;;;;;;5063189;28;20528;-81
2023/09/27 02:58:53;;;;;;;1.37;1.27;;;15.90;99.90;;;;;;5071870;28;20511;-82
2023/09/27 03:01:20;;;;;;;0.50;0.40;;;15.90;99.90;;;;;;5071444;28;20462;-81
2023/09/27 03:03:47;;;;;;;0.50;0.40;;;15.90;99.90;;;;;;5071600;28;20440;-81
2023/09/27 03:06:16;;;;;;;0.50;0.40;;;15.80;99.90;;;;;;5070961;28;20498;-82
2023/09/27 03:08:44;;;;;;;0.50;0.40;;;15.70;99.90;;;;;;5071436;28;20460;-82
2023/09/27 03:11:10;;;;;;;0.50;0.40;;;15.60;99.90;;;;;;5071212;28;20444;-80
2023/09/27 03:13:37;;;;;;;0.50;0.40;;;15.60;99.90;;;;;;5071223;28;21058;-81
2023/09/27 03:16:05;;;;;;;0.50;0.40;;;15.60;99.90;;;;;;5070977;28;20439;-79
2023/09/27 03:18:32;;;;;;;0.50;0.40;;;15.60;99.90;;;;;;5071026;28;20875;-81
2023/09/27 03:20:59;;;;;;;0.50;0.40;;;15.60;99.90;;;;;;5071524;28;20439;-82
2023/09/27 03:23:27;;;;;;;0.50;0.40;;;15.60;99.90;;;;;;5071681;28;20439;-80
2023/09/27 03:25:55;;;;;;;0.50;0.40;;;15.50;99.90;;;;;;5071144;28;20451;-81
2023/09/27 03:28:23;;;;;;;0.77;0.60;;;15.50;99.90;;;;;;5070782;28;20464;-80
2023/09/27 03:30:50;;;;;;;0.50;0.40;;;15.50;99.90;;;;;;5071438;28;20517;-81
2023/09/27 03:33:17;;;;;;;0.50;0.40;;;15.50;99.90;;;;;;5071123;28;20447;-81
2023/09/27 03:35:44;;;;;;;0.50;0.50;;;15.50;99.90;;;;;;5071755;28;20447;-81
2023/09/27 03:38:11;;;;;;;0.50;0.40;;;15.50;99.90;;;;;;5072869;28;20468;-82
2023/09/27 03:40:41;;;;;;;1.03;0.97;;;15.50;99.90;;;;;;5072568;28;20896;-81
2023/09/27 03:43:08;;;;;;;0.50;0.40;;;15.50;99.90;;;;;;5072143;28;20536;-82
2023/09/27 03:45:36;;;;;;;0.50;0.40;;;15.50;99.90;;;;;;5073542;28;20553;-78
2023/09/27 03:48:03;;;;;;;0.50;0.40;;;15.50;99.90;;;;;;5073831;28;20514;-82
2023/09/27 03:50:30;;;;;;;0.50;0.40;;;15.50;99.90;;;;;;5067118;28;20462;-81
2023/09/27 03:52:57;;;;;;;0.50;0.40;;;15.50;99.90;;;;;;5076796;28;20452;-81
2023/09/27 03:55:24;;;;;;;0.50;0.40;;;15.50;99.90;;;;;;5075905;28;20471;-83
2023/09/27 03:57:53;;;;;;;0.50;0.40;;;15.40;99.90;;;;;;5075247;28;20464;-83
2023/09/27 04:00:21;;;;;;;0.50;0.40;;;15.40;99.90;;;;;;5076726;28;20466;-82
2023/09/27 04:02:48;;;;;;;0.50;0.40;;;15.40;99.90;;;;;;5076473;28;20436;-82
2023/09/27 04:05:17;;;;;;;0.50;0.40;;;15.40;99.90;;;;;;5074737;28;20435;-81
2023/09/27 04:07:44;;;;;;;0.50;0.40;;;15.40;99.90;;;;;;5075927;28;20457;-83
2023/09/27 04:10:11;;;;;;;0.50;0.40;;;15.30;99.90;;;;;;5074781;28;20510;-82
2023/09/27 04:12:38;;;;;;;0.50;0.40;;;15.40;99.90;;;;;;5077065;28;20490;-82
2023/09/27 04:15:09;;;;;;;0.50;0.40;;;15.40;99.90;;;;;;5075823;28;20516;-82
2023/09/27 04:17:37;;;;;;;0.50;0.40;;;15.40;99.90;;;;;;5074307;28;20437;-82
2023/09/27 04:20:14;;;;;;;0.50;0.40;;;15.40;99.90;;;;;;5074642;28;20531;-82
2023/09/27 04:22:43;;;;;;;0.50;0.40;;;15.30;99.90;;;;;;5074278;28;20465;-82
2023/09/27 04:25:12;;;;;;;0.50;0.40;;;15.30;99.90;;;;;;5073033;28;20437;-81
2023/09/27 04:27:39;;;;;;;0.50;0.40;;;15.20;99.90;;;;;;5065498;28;20780;-80
2023/09/27 04:30:11;;;;;;;0.50;0.50;;;15.10;99.90;;;;;;5073590;28;20519;-81
2023/09/27 04:32:39;;;;;;;0.50;0.40;;;15.10;99.90;;;;;;5066503;28;20807;-81
2023/09/27 04:35:08;;;;;;;0.50;0.40;;;15.10;99.90;;;;;;5073862;28;20563;-81
2023/09/27 04:37:35;;;;;;;0.50;0.40;;;15.00;99.90;;;;;;5073275;28;20437;-81
2023/09/27 04:40:03;;;;;;;0.50;0.40;;;14.90;99.90;;;;;;5073470;28;20440;-81
2023/09/27 04:42:29;;;;;;;0.50;0.40;;;14.80;99.90;;;;;;5073339;28;20441;-80
2023/09/27 04:44:56;;;;;;;0.50;0.30;;;14.80;99.90;;;;;;5073209;28;20447;-81
2023/09/27 04:47:24;;;;;;;0.50;0.40;;;14.70;99.90;;;;;;5072974;28;20455;-80
2023/09/27 04:49:51;;;;;;;0.50;0.40;;;14.60;99.90;;;;;;5073306;28;20436;-81
2023/09/27 04:52:20;;;;;;;0.50;0.40;;;14.50;99.90;;;;;;5073712;28;20448;-81
2023/09/27 04:54:47;;;;;;;2.00;1.90;;;14.50;99.90;;;;;;5074076;28;20483;-81
2023/09/27 04:57:14;;;;;;;0.50;0.40;;;14.40;99.90;;;;;;5075923;28;20908;-81
2023/09/27 04:59:42;;;;;;;0.50;0.40;;;14.20;99.90;;;;;;5076279;28;20496;-81
2023/09/27 05:02:08;;;;;;;0.50;0.40;;;14.20;99.90;;;;;;5073771;28;20439;-80
2023/09/27 05:04:36;;;;;;;0.80;0.80;;;14.10;99.90;;;;;;5073391;28;20462;-78
2023/09/27 05:07:04;;;;;;;0.50;0.40;;;14.10;99.90;;;;;;5073628;28;20447;-81
2023/09/27 05:09:31;;;;;;;0.50;0.40;;;14.00;99.90;;;;;;5073271;28;20510;-81
2023/09/27 05:11:58;;;;;;;0.50;0.40;;;14.00;99.90;;;;;;5075034;28;20444;-81
2023/09/27 05:14:25;;;;;;;0.50;0.40;;;13.90;99.90;;;;;;5073757;28;20510;-81
2023/09/27 05:16:51;;;;;;;0.50;0.40;;;13.80;99.90;;;;;;5073110;28;20459;-81
2023/09/27 05:19:18;;;;;;;0.50;0.40;;;13.80;99.90;;;;;;5073376;28;20800;-81
2023/09/27 05:21:46;;;;;;;0.50;0.40;;;13.80;99.90;;;;;;5073486;28;20850;-81
2023/09/27 05:24:13;;;;;;;0.50;0.40;;;13.70;99.90;;;;;;5073437;28;20840;-81
2023/09/27 05:26:40;;;;;;;0.50;0.40;;;13.70;99.90;;;;;;5073782;28;20442;-80
2023/09/27 05:29:06;;;;;;;0.50;0.40;;;13.70;99.90;;;;;;5074525;28;20467;-82
2023/09/27 05:31:33;;;;;;;0.50;0.40;;;13.60;99.90;;;;;;5074898;28;20442;-80
2023/09/27 05:34:00;;;;;;;0.50;0.40;;;13.60;99.90;;;;;;5074324;28;20903;-80
2023/09/27 05:36:27;;;;;;;0.50;0.40;;;13.60;99.90;;;;;;5073207;28;20441;-81
2023/09/27 05:38:55;;;;;;;0.50;0.40;;;13.60;99.90;;;;;;5073813;28;20476;-82
2023/09/27 05:41:22;;;;;;;0.50;0.40;;;13.60;99.90;;;;;;5074145;28;20444;-81
2023/09/27 05:43:49;;;;;;;0.60;0.60;;;13.60;99.90;;;;;;5077074;28;20482;-80
2023/09/27 05:46:17;;;;;;;0.50;0.40;;;13.60;99.90;;;;;;5075325;28;20444;-80
2023/09/27 05:48:44;;;;;;;2.50;2.40;;;13.70;99.90;;;;;;5075113;28;20465;-81
2023/09/27 05:51:11;;;;;;;0.50;0.40;;;13.60;99.90;;;;;;5074828;28;20447;-82
2023/09/27 05:53:38;;;;;;;0.50;0.40;;;13.60;99.90;;;;;;5073788;28;20467;-81
2023/09/27 05:56:07;;;;;;;0.50;0.40;;;13.60;99.90;;;;;;5074357;28;20476;-81
2023/09/27 05:58:35;;;;;;;0.50;0.40;;;13.60;99.90;;;;;;5073786;28;20933;-81
2023/09/27 06:01:02;;;;;;;0.50;0.40;;;13.60;99.90;;;;;;5073701;28;20439;-81
2023/09/27 06:03:31;;;;;;;0.50;0.40;;;13.70;99.90;;;;;;5074010;28;20432;-81
2023/09/27 06:05:58;;;;;;;0.50;0.40;;;13.80;99.90;;;;;;5074419;28;20439;-81
2023/09/27 06:08:25;;;;;;;0.50;0.40;;;13.80;99.90;;;;;;5074388;28;20540;-82
2023/09/27 06:10:52;;;;;;;0.50;0.40;;;13.90;99.90;;;;;;5074338;28;20443;-81
2023/09/27 06:13:20;;;;;;;0.50;0.40;;;14.00;99.90;;;;;;5073805;28;20447;-79
2023/09/27 06:15:47;;;;;;;3.40;2.00;;;14.10;99.90;;;;;;5064987;28;20539;-81
2023/09/27 06:18:13;;;;;;;0.50;0.40;;;14.30;99.90;;;;;;5073222;28;20475;-81
2023/09/27 06:20:40;;;;;;;0.50;0.40;;;14.40;99.90;;;;;;5073050;28;20498;-82
2023/09/27 06:23:09;;;;;;;0.50;0.40;;;14.50;99.90;;;;;;5073062;28;20472;-81
2023/09/27 06:25:36;;;;;;;0.50;0.40;;;14.70;99.90;;;;;;5072575;28;20440;-82
2023/09/27 06:28:03;;;;;;;0.50;0.40;;;14.90;99.90;;;;;;5074037;28;20456;-81
2023/09/27 06:30:32;;;;;;;0.57;0.53;;;15.00;99.90;;;;;;5073112;28;20864;-79
2023/09/27 06:32:58;;;;;;;0.50;0.40;;;15.20;99.90;;;;;;5073730;28;20503;-83
2023/09/27 06:35:25;;;;;;;0.50;0.40;;;15.40;99.90;;;;;;5072787;28;20476;-80
2023/09/27 06:37:52;;;;;;;0.50;0.40;;;15.80;99.90;;;;;;5072850;28;20571;-82
2023/09/27 06:40:22;;;;;;;0.50;0.40;;;16.10;99.90;;;;;;5072537;28;20920;-81
2023/09/27 06:42:48;;;;;;;0.50;0.40;;;16.50;99.90;;;;;;5064161;28;20498;-81
2023/09/27 06:45:15;;;;;;;0.50;0.40;;;16.60;99.90;;;;;;5072331;28;20463;-81
2023/09/27 06:47:45;;;;;;;0.50;0.40;;;16.60;99.90;;;;;;5072326;28;20928;-81
2023/09/27 06:50:13;;;;;;;1.33;1.23;;;16.50;99.90;;;;;;5073147;28;21024;-82
2023/09/27 06:52:40;;;;;;;0.50;0.40;;;16.40;99.90;;;;;;5072225;28;20460;-82
2023/09/27 06:55:10;;;;;;;0.50;0.40;;;16.20;99.90;;;;;;5072631;28;20890;-81
2023/09/27 06:57:38;;;;;;;0.50;0.40;;;16.10;99.90;;;;;;5072725;28;20794;-81
2023/09/27 07:00:09;;;;;;;0.50;0.40;;;16.10;99.90;;;;;;5073676;28;20816;-81
2023/09/27 07:02:36;;;;;;;0.50;0.40;;;16.20;99.90;;;;;;5073014;28;20444;-83
2023/09/27 07:05:04;;;;;;;0.50;0.40;;;16.20;99.90;;;;;;5073500;28;20452;-83
2023/09/27 07:07:31;;;;;;;0.50;0.30;;;16.20;99.90;;;;;;5072575;28;20991;-81
2023/09/27 07:09:58;;;;;;;0.50;0.40;;;16.30;99.90;;;;;;5073695;28;20963;-81
2023/09/27 07:12:25;;;;;;;0.50;0.40;;;16.30;99.90;;;;;;5072989;28;20815;-81
2023/09/27 07:14:52;;;;;;;0.50;0.40;;;16.30;99.90;;;;;;5072713;28;20476;-81
2023/09/27 07:17:18;;;;;;;0.50;0.40;;;16.20;99.90;;;;;;5072887;28;20445;-82
2023/09/27 07:19:46;;;;;;;0.50;0.40;;;16.30;99.90;;;;;;5073029;28;20463;-82
2023/09/27 07:22:16;;;;;;;0.50;0.40;;;16.40;99.90;;;;;;5072866;28;20909;-82
2023/09/27 07:24:42;;;;;;;0.50;0.40;;;16.50;99.90;;;;;;5072288;28;20536;-81
2023/09/27 07:27:09;;;;;;;0.50;0.37;;;16.50;99.90;;;;;;5075702;28;20444;-82
2023/09/27 07:29:36;;;;;;;0.50;0.30;;;16.60;99.90;;;;;;5075409;28;20461;-81
2023/09/27 07:32:04;;;;;;;0.50;0.30;;;16.80;99.90;;;;;;5075739;28;20445;-81
2023/09/27 07:34:31;;;;;;;0.50;0.40;;;16.90;99.90;;;;;;5075650;28;20943;-81
2023/09/27 07:36:58;;;;;;;0.50;0.40;;;17.20;99.90;;;;;;5076297;28;20932;-81
2023/09/27 07:39:27;;;;;;;0.50;0.43;;;17.50;99.90;;;;;;5076500;28;20543;-81
2023/09/27 07:41:54;;;;;;;0.50;0.40;;;17.70;99.90;;;;;;5077165;28;20478;-81
2023/09/27 07:44:21;;;;;;;0.50;0.40;;;18.10;99.90;;;;;;5075751;28;20448;-79
2023/09/27 07:46:48;;;;;;;0.50;0.40;;;18.50;99.90;;;;;;5075603;28;20452;-81
2023/09/27 07:49:15;;;;;;;0.50;0.33;;;19.00;99.90;;;;;;5075681;28;21061;-82
2023/09/27 07:51:42;;;;;;;0.50;0.30;;;19.50;99.90;;;;;;5075595;28;20824;-81
2023/09/27 07:54:09;;;;;;;0.50;0.40;;;20.10;99.90;;;;;;5075628;28;20825;-82
2023/09/27 07:56:39;;;;;;;0.50;0.40;;;20.50;99.90;;;;;;5075261;28;20547;-81
2023/09/27 07:59:06;;;;;;;0.50;0.30;;;21.10;99.90;;;;;;5076047;28;20470;-81
2023/09/27 08:01:33;;;;;;;0.50;0.30;;;21.80;99.90;;;;;;5075050;28;20926;-78
2023/09/27 08:04:06;;;;;;;0.50;0.30;;;22.10;99.90;;;;;;5075007;28;20537;-80
2023/09/27 08:06:34;;;;;;;1.00;0.87;;;22.10;99.90;;;;;;5073875;28;20434;-81
2023/09/27 08:09:01;;;;;;;0.50;0.30;;;21.80;99.90;;;;;;5075622;28;20467;-81
2023/09/27 08:11:28;;;;;;;0.50;0.30;;;21.70;99.90;;;;;;5075224;28;20432;-81
2023/09/27 08:13:56;;;;;;;0.50;0.30;;;21.70;99.90;;;;;;5076459;28;20442;-81
2023/09/27 08:16:23;;;;;;;0.50;0.40;;;22.10;99.90;;;;;;5075536;28;20479;-81
2023/09/27 08:18:50;;;;;;;0.50;0.30;;;22.70;99.90;;;;;;5074567;28;20474;-82
2023/09/27 08:21:16;;;;;;;0.50;0.30;;;22.90;99.90;;;;;;5075325;28;20448;-81
2023/09/27 08:23:43;;;;;;;0.50;0.37;;;23.20;99.90;;;;;;5075094;28;20448;-82
2023/09/27 08:26:12;;;;;;;0.63;0.63;;;23.30;99.90;;;;;;5074685;28;20434;-81
2023/09/27 08:28:40;;;;;;;0.50;0.30;;;23.50;99.90;;;;;;5074709;28;20824;-81
2023/09/27 08:31:09;;;;;;;0.50;0.30;;;23.80;99.90;;;;;;5075385;28;20444;-81
2023/09/27 08:33:36;;;;;;;0.50;0.40;;;24.10;99.90;;;;;;5075476;28;20448;-77
2023/09/27 08:36:03;;;;;;;0.50;0.30;;;24.00;99.90;;;;;;5074120;28;20513;-82
2023/09/27 08:38:30;;;;;;;0.50;0.40;;;23.80;99.90;;;;;;5074562;28;20455;-80
2023/09/27 08:40:57;;;;;;;0.50;0.30;;;23.60;99.90;;;;;;5075226;28;20445;-81
2023/09/27 08:43:26;;;;;;;0.50;0.30;;;23.40;99.90;;;;;;5074014;28;20536;-81
2023/09/27 08:45:53;;;;;;;0.50;0.30;;;23.30;99.90;;;;;;5074150;28;20969;-81
2023/09/27 08:48:22;;;;;;;0.50;0.30;;;23.00;99.90;;;;;;5073756;28;20959;-81
2023/09/27 08:50:50;;;;;;;0.50;0.30;;;22.90;99.90;;;;;;5074435;28;20461;-82
2023/09/27 08:53:17;;;;;;;0.50;0.30;;;23.00;99.90;;;;;;5075397;28;20884;-82
2023/09/27 08:55:47;;;;;;;0.50;0.40;;;23.20;99.90;;;;;;5074945;28;20486;-81
2023/09/27 08:58:15;;;;;;;0.97;0.97;;;23.60;99.90;;;;;;5074347;28;20963;-81
2023/09/27 09:00:43;;;;;;;0.50;0.30;;;24.10;99.90;;;;;;5074871;28;20471;-82
2023/09/27 09:03:10;;;;;;;0.50;0.30;;;25.20;99.90;;;;;;5075455;28;20974;-82
2023/09/27 09:05:40;;;;;;;0.50;0.30;;;26.10;99.90;;;;;;5074305;28;20447;-79
2023/09/27 09:08:08;;;;;;;0.50;0.30;;;27.00;99.90;;;;;;5074682;28;20452;-82
2023/09/27 09:10:37;;;;;;;0.50;0.40;;;27.80;99.90;;;;;;5074533;28;20448;-80
2023/09/27 09:13:05;;;;;;;1.60;1.17;;;28.60;99.90;;;;;;5075301;28;20514;-82
2023/09/27 09:15:40;;;;;;;0.50;0.30;;;28.90;99.90;;;;;;5074821;28;21231;-82
2023/09/27 09:18:08;;;;;;;0.50;0.30;;;29.20;99.90;;;;;;5066900;28;20460;-80
2023/09/27 09:20:49;;;;;;;3.27;1.80;;;29.70;96.00;;;;;;5074400;28;20502;-80
2023/09/27 09:23:31;;;;;;;0.50;0.30;;;29.80;94.60;;;;;;5068188;28;20451;-80
2023/09/27 09:25:58;;;;;;;0.50;0.30;;;29.80;93.90;;;;;;5073698;28;20440;-82
2023/09/27 09:28:25;;;;;;;0.50;0.30;;;29.90;94.60;;;;;;5074678;28;20547;-80
2023/09/27 09:30:54;;;;;;;0.50;0.40;;;29.80;91.90;;;;;;5073541;28;20823;-80
2023/09/27 09:33:21;;;;;;;0.50;0.30;;;29.80;93.40;;;;;;5075007;28;20451;-81
2023/09/27 09:35:48;;;;;;;0.50;0.30;;;29.70;93.30;;;;;;5073600;28;20482;-80
2023/09/27 09:38:24;;;;;;;0.50;0.30;;;29.50;95.50;;;;;;5074714;28;20470;-80
2023/09/27 09:40:57;;;;;;;0.40;0.30;;;29.70;95.80;;;;;;5074359;28;20448;-80
2023/09/27 09:43:34;;;;;;;0.50;0.30;;;29.70;95.60;;;;;;5074644;28;20495;-80
2023/09/27 09:46:04;;;;;;;0.50;0.30;;;29.50;95.80;;;;;;5073205;28;20440;-80
2023/09/27 09:48:33;;;;;;;0.50;0.30;;;29.30;96.20;;;;;;5073578;28;20471;-79
2023/09/27 09:51:04;;;;;;;0.50;0.30;;;29.10;95.80;;;;;;5078044;28;20948;-80
2023/09/27 09:53:31;;;;;;;0.50;0.30;;;28.80;95.70;;;;;;5074480;28;20817;-81
2023/09/27 09:56:02;;;;;;;0.50;0.30;;;28.80;98.40;;;;;;5056225;28;20471;-80
2023/09/27 09:58:33;;;;;;;0.50;0.30;;;28.60;99.60;;;;;;5073150;28;20472;-79
2023/09/27 10:01:03;;;;;;;0.50;0.30;;;28.60;97.80;;;;;;5089899;22;20441;-81
2023/09/27 10:03:32;;;;;;;0.50;0.30;;;29.20;96.60;;;;;;5077585;28;20460;-82
2023/09/27 10:06:01;;;;;;;0.50;0.30;;;29.80;96.30;;;;;;5079265;28;20448;-80
2023/09/27 10:08:33;;;;;;;0.60;0.60;;;30.60;93.80;;;;;;5076002;28;20437;-79
2023/09/27 10:11:03;;;;;;;0.50;0.30;;;31.00;93.20;;;;;;5076417;28;20797;-79
2023/09/27 10:13:32;;;;;;;0.50;0.30;;;31.60;91.30;;;;;;5068441;28;20450;-80
2023/09/27 10:15:59;;;;;;;0.50;0.30;;;32.40;90.40;;;;;;5064971;28;20476;-78
2023/09/27 10:18:36;;;;;;;0.50;0.30;;;33.20;86.30;;;;;;5065063;28;20465;-77
2023/09/27 10:21:08;;;;;;;0.50;0.30;;;33.90;78.40;;;;;;5069149;28;20439;-79
2023/09/27 10:23:36;;;;;;;1.37;0.50;;;34.70;78.60;;;;;;5069159;28;20477;-81
2023/09/27 10:26:19;;;;;;;0.70;0.70;;;35.60;71.20;;;;;;5064643;28;20465;-81
2023/09/27 10:29:19;;;;;;;0.40;0.30;;;35.60;71.30;;;;;;5063408;28;20864;-80
2023/09/27 10:32:19;;;;;;;0.40;0.30;;;34.60;69.10;;;;;;5012100;28;20463;-81
2023/09/27 10:34:46;;;;;;;0.40;0.30;;;34.30;69.90;;;;;;5012942;28;20921;-81
2023/09/27 10:37:13;;;;;;;0.40;0.30;;;34.60;69.30;;;;;;5014278;28;20485;-80
2023/09/27 10:39:40;;;;;;;0.40;0.30;;;35.40;70.40;;;;;;5016844;28;20926;-79
2023/09/27 10:42:08;;;;;;;0.40;0.30;;;35.60;69.30;;;;;;5013435;28;20463;-81
2023/09/27 10:44:40;;;;;;;2.20;1.00;;;36.00;63.70;;;;;;5012978;28;20494;-82
2023/09/27 10:47:08;;;;;;;0.40;0.40;;;36.20;62.70;;;;;;5014435;28;20527;-79
2023/09/27 10:49:38;;;;;;;0.40;0.30;;;36.20;60.80;;;;;;5018246;28;20957;-79
2023/09/27 10:52:15;;;;;;;0.40;0.30;;;36.40;59.60;;;;;;5017402;28;20475;-80
2023/09/27 10:54:42;;;;;;;0.40;0.30;;;36.50;58.60;;;;;;5017540;28;20485;-80
2023/09/27 10:57:10;;;;;;;0.40;0.30;;;36.20;58.90;;;;;;5016135;28;20475;-80
2023/09/27 10:59:37;;;;;;;0.40;0.30;;;35.50;60.10;;;;;;5016610;28;20439;-79
2023/09/27 11:02:04;;;;;;;0.40;0.30;;;35.20;60.40;;;;;;5031868;28;20465;-79
2023/09/27 11:04:32;;;;;;;0.40;0.30;;;34.70;59.20;;;;;;5067283;28;20450;-79
2023/09/27 11:06:59;;;;;;;0.40;0.30;;;34.40;58.70;;;;;;5069617;28;20523;-80
2023/09/27 11:09:27;;;;;;;0.87;0.87;;;34.10;60.00;;;;;;5072822;28;20442;-81
2023/09/27 11:11:55;;;;;;;0.40;0.30;;;33.90;59.90;;;;;;5067432;28;20464;-80
2023/09/27 11:14:44;;;;;;;0.50;0.30;;;32.80;62.80;;;;;;5073510;28;20449;-81
2023/09/27 11:17:22;;;;;;;0.50;0.30;;;31.90;65.10;;;;;;5061308;28;20511;-81
2023/09/27 11:19:49;;;;;;;0.50;0.30;;;31.00;69.00;;;;;;5078162;28;20447;-80
2023/09/27 11:22:25;;;;;;;0.50;0.30;;;30.90;66.50;;;;;;5065604;28;20453;-81
2023/09/27 11:24:52;;;;;;;0.50;0.30;;;30.60;63.50;;;;;;5066533;28;20455;-81
2023/09/27 11:27:21;;;;;;;0.50;0.30;;;30.10;69.10;;;;;;5070656;28;20527;-80
2023/09/27 11:29:52;;;;;;;0.50;0.40;;;29.50;72.80;;;;;;5070283;28;20527;-81
2023/09/27 11:32:19;;;;;;;0.50;0.30;;;29.20;71.90;;;;;;5068866;28;20448;-81
2023/09/27 11:34:54;;;;;;;0.50;0.30;;;28.80;73.40;;;;;;5061442;28;20430;-81
2023/09/27 11:37:23;;;;;;;0.50;0.30;;;28.70;75.00;;;;;;5070123;28;20545;-81
2023/09/27 11:39:51;;;;;;;0.50;0.30;;;28.80;70.10;;;;;;5076875;28;20466;-80
2023/09/27 11:42:21;;;;;;;0.50;0.30;;;29.30;71.60;;;;;;5066087;28;20464;-81
2023/09/27 11:45:04;;;;;;;0.70;0.67;;;29.40;69.40;;;;;;5057363;28;20433;-81
2023/09/27 11:47:32;;;;;;;0.50;0.30;;;29.20;70.50;;;;;;5057882;28;20437;-81
2023/09/27 11:49:58;;;;;;;0.50;0.30;;;28.80;69.90;;;;;;5057352;28;20433;-80
2023/09/27 11:52:25;;;;;;;0.50;0.30;;;28.40;70.70;;;;;;5057821;28;20454;-81
2023/09/27 11:54:53;;;;;;;0.50;0.30;;;28.20;73.10;;;;;;5074253;28;20440;-81
2023/09/27 11:57:19;;;;;;;2.13;1.33;;;28.40;73.70;;;;;;5057955;28;20464;-80
2023/09/27 11:59:46;;;;;;;0.50;0.30;;;29.30;77.70;;;;;;5065752;28;20538;-82
2023/09/27 12:02:18;;;;;;;0.50;0.30;;;30.60;72.40;;;;;;5069526;28;20471;-81
2023/09/27 12:04:45;;;;;;;0.50;0.30;;;31.70;68.20;;;;;;5062733;28;20434;-81
2023/09/27 12:07:12;;;;;;;0.50;0.40;;;32.30;65.00;;;;;;5080347;28;21181;-80
2023/09/27 12:09:39;;;;;;;0.40;0.30;;;32.80;64.40;;;;;;5080582;28;20469;-81
2023/09/27 12:12:06;;;;;;;0.50;0.30;;;32.70;63.30;;;;;;5066960;28;20479;-81
2023/09/27 12:14:32;;;;;;;0.50;0.30;;;32.50;63.30;;;;;;5067006;28;20465;-80
2023/09/27 12:16:59;;;;;;;0.50;0.40;;;32.10;64.10;;;;;;5067169;28;20556;-81
2023/09/27 12:19:27;;;;;;;0.47;0.30;;;31.60;65.30;;;;;;5057950;28;20876;-81
2023/09/27 12:21:54;;;;;;;0.50;0.30;;;31.40;66.60;;;;;;5074578;28;20563;-81
2023/09/27 12:24:21;;;;;;;0.50;0.40;;;31.30;70.30;;;;;;5066930;28;20872;-79
2023/09/27 12:26:48;;;;;;;0.50;0.30;;;31.80;67.80;;;;;;5069712;28;20489;-80
2023/09/27 12:29:15;;;;;;;0.50;0.30;;;32.40;65.30;;;;;;5080360;28;20441;-81
2023/09/27 12:31:42;;;;;;;0.50;0.30;;;32.30;64.40;;;;;;5062344;28;20533;-82
2023/09/27 12:34:08;;;;;;;0.43;0.30;;;31.90;65.30;;;;;;5057165;28;20438;-81
2023/09/27 12:36:37;;;;;;;0.53;0.53;;;31.80;68.80;;;;;;5056998;28;20469;-81
2023/09/27 12:39:04;;;;;;;0.50;0.30;;;31.80;69.20;;;;;;5056950;28;20811;-81
2023/09/27 12:41:30;;;;;;;0.50;0.30;;;31.60;67.00;;;;;;5062017;28;20472;-81
2023/09/27 12:43:57;;;;;;;0.50;0.30;;;31.20;67.30;;;;;;5076525;28;20443;-81
2023/09/27 12:46:24;;;;;;;0.50;0.30;;;31.00;68.00;;;;;;5073017;28;20469;-81
2023/09/27 12:48:51;;;;;;;0.50;0.30;;;30.50;67.10;;;;;;5055394;28;20448;-78
2023/09/27 12:51:18;;;;;;;0.50;0.30;;;30.00;71.90;;;;;;5057559;28;20959;-81
2023/09/27 12:53:46;;;;;;;0.50;0.30;;;29.90;72.10;;;;;;5074997;28;20920;-78